Time;durP1;ratioP1;P1;durP2;ratioP2;P2;SDS_P1;SDS_P2;PMS_P1;PMS_P2;Temp;Humidity;BMP_temperature;BMP_pressure;BME280_temperature;BME280_humidity;BME280_pressure;Samples;Min_cycle;Max_cycle;Signal;HPM_P1;HPM_P2
2022/05/10 01:56:56;;;;;;;18.00;16.70;;;15.00;99.90;;;;;;5388704;23;20485;-64
2022/05/10 01:59:23;;;;;;;17.90;16.37;;;15.00;99.90;;;;;;4994633;28;20464;-64
2022/05/10 02:01:50;;;;;;;18.27;16.70;;;15.10;99.90;;;;;;4994316;28;20938;-64
2022/05/10 02:04:21;;;;;;;17.23;15.83;;;15.10;99.90;;;;;;4994251;28;20950;-64
2022/05/10 02:06:53;;;;;;;20.00;18.30;;;15.10;99.90;;;;;;4994603;28;20529;-64
2022/05/10 02:09:25;;;;;;;18.43;16.83;;;15.10;99.90;;;;;;4994967;28;20442;-65
2022/05/10 02:11:56;;;;;;;17.50;16.30;;;15.10;99.90;;;;;;4994603;28;20985;-65
2022/05/10 02:14:32;;;;;;;20.00;18.50;;;15.00;99.90;;;;;;4994600;28;20446;-65
2022/05/10 02:17:07;;;;;;;19.77;18.17;;;15.00;99.90;;;;;;4994840;28;20528;-65
2022/05/10 02:19:40;;;;;;;19.57;17.67;;;14.90;99.90;;;;;;4994236;28;20910;-65
2022/05/10 02:22:09;;;;;;;20.77;19.00;;;14.90;99.90;;;;;;4994608;28;20442;-65
2022/05/10 02:24:41;;;;;;;20.83;19.13;;;14.90;99.90;;;;;;4994689;28;20454;-64
2022/05/10 02:27:13;;;;;;;21.40;19.43;;;14.90;99.90;;;;;;4994701;28;20474;-65
2022/05/10 02:29:44;;;;;;;21.13;19.33;;;14.90;99.90;;;;;;4994378;28;20911;-65
2022/05/10 02:35:03;;;;;;;20.20;18.40;;;14.80;99.90;;;;;;4994367;28;20422;-65
2022/05/10 02:37:30;;;;;;;22.67;20.77;;;14.90;99.90;;;;;;4993992;28;21005;-65
2022/05/10 02:39:57;;;;;;;21.07;19.37;;;14.90;99.90;;;;;;4994214;28;20504;-65
2022/05/10 02:42:25;;;;;;;21.10;19.20;;;14.80;99.90;;;;;;4996826;28;20460;-65
2022/05/10 02:44:54;;;;;;;22.10;20.10;;;14.80;99.90;;;;;;4998168;28;20458;-65
2022/05/10 02:47:30;;;;;;;22.00;19.93;;;14.80;99.90;;;;;;4997714;28;20477;-65
2022/05/10 02:49:56;;;;;;;21.30;19.50;;;14.80;99.90;;;;;;4998153;28;20441;-65
2022/05/10 02:52:23;;;;;;;22.93;21.00;;;14.80;99.90;;;;;;4998459;28;20477;-65
2022/05/10 02:54:54;;;;;;;22.73;20.73;;;14.90;99.90;;;;;;4999211;28;20449;-65
2022/05/10 02:57:22;;;;;;;22.20;20.30;;;14.80;99.90;;;;;;4998490;28;20485;-65
2022/05/10 02:59:49;;;;;;;21.73;19.93;;;14.80;99.90;;;;;;4998558;28;20457;-65
2022/05/10 03:02:23;;;;;;;22.77;20.73;;;14.70;99.90;;;;;;4997991;28;20822;-65
2022/05/10 03:04:57;;;;;;;21.80;19.80;;;14.60;99.90;;;;;;4997881;28;20437;-65
2022/05/10 03:07:25;;;;;;;22.63;20.57;;;14.60;99.90;;;;;;4997789;28;20509;-65
2022/05/10 03:09:52;;;;;;;21.90;19.70;;;14.50;99.90;;;;;;4997707;28;20464;-64
2022/05/10 03:12:19;;;;;;;22.10;20.40;;;14.50;99.90;;;;;;4997736;28;20477;-64
2022/05/10 03:14:46;;;;;;;22.90;20.60;;;14.50;99.90;;;;;;4997303;28;20867;-65
2022/05/10 03:17:13;;;;;;;20.63;19.03;;;14.40;99.90;;;;;;4997341;28;20481;-64
2022/05/10 03:19:43;;;;;;;19.57;18.07;;;14.40;99.90;;;;;;4997658;28;20866;-64
2022/05/10 03:22:11;;;;;;;19.17;17.70;;;14.30;99.90;;;;;;4998203;28;20453;-65
2022/05/10 03:24:37;;;;;;;20.40;18.73;;;14.30;99.90;;;;;;4998351;28;20457;-64
2022/05/10 03:27:07;;;;;;;21.73;19.93;;;14.20;99.90;;;;;;4997400;28;20480;-64
2022/05/10 03:29:34;;;;;;;21.37;19.50;;;14.20;99.90;;;;;;4997216;28;20946;-64
2022/05/10 03:32:01;;;;;;;21.60;19.83;;;14.20;99.90;;;;;;4997376;28;20478;-64
2022/05/10 03:37:13;;;;;;;21.40;19.73;;;14.20;99.90;;;;;;4997265;28;20461;-64
2022/05/10 03:39:40;;;;;;;21.47;19.67;;;14.10;99.90;;;;;;4997276;28;20863;-64
2022/05/10 03:42:07;;;;;;;21.97;20.17;;;14.10;99.90;;;;;;4997285;28;20454;-65
2022/05/10 03:44:35;;;;;;;22.17;20.30;;;14.10;99.90;;;;;;4997188;28;20453;-65
2022/05/10 03:47:02;;;;;;;20.70;19.00;;;14.10;99.90;;;;;;4998745;28;20882;-65
2022/05/10 03:49:29;;;;;;;20.97;18.77;;;14.10;99.90;;;;;;4998705;28;20460;-65
2022/05/10 03:51:56;;;;;;;22.97;21.00;;;14.10;99.90;;;;;;4997653;28;20481;-65
2022/05/10 03:54:26;;;;;;;18.93;17.40;;;14.10;99.90;;;;;;4996838;28;20536;-65
2022/05/10 03:56:53;;;;;;;20.07;18.40;;;14.10;99.90;;;;;;4997338;28;21031;-64
2022/05/10 03:59:20;;;;;;;22.40;20.70;;;14.10;99.90;;;;;;4997086;28;20822;-65
2022/05/10 04:01:47;;;;;;;22.60;20.70;;;14.20;99.90;;;;;;4996821;28;20454;-65
2022/05/10 04:04:14;;;;;;;21.43;19.63;;;14.10;99.90;;;;;;4996861;28;20469;-65
2022/05/10 04:06:41;;;;;;;22.77;20.40;;;14.10;99.90;;;;;;4996871;28;20481;-65
2022/05/10 04:09:08;;;;;;;20.10;18.23;;;14.20;99.90;;;;;;4996675;28;20457;-65
2022/05/10 04:11:37;;;;;;;21.97;20.07;;;14.20;99.90;;;;;;4996625;28;20883;-64
2022/05/10 04:14:04;;;;;;;22.33;20.57;;;14.20;99.90;;;;;;4996617;28;20457;-64
2022/05/10 04:16:31;;;;;;;22.63;20.63;;;14.10;99.90;;;;;;4996499;28;20837;-64
2022/05/10 04:18:58;;;;;;;23.50;21.30;;;14.10;99.90;;;;;;4996118;28;20950;-65
2022/05/10 04:21:25;;;;;;;23.73;21.70;;;14.10;99.90;;;;;;4996537;28;20485;-64
2022/05/10 04:23:52;;;;;;;23.97;21.67;;;14.10;99.90;;;;;;4998118;28;20458;-64
2022/05/10 04:26:19;;;;;;;25.73;23.47;;;14.00;99.90;;;;;;4999829;28;20978;-65
2022/05/10 04:28:47;;;;;;;26.60;24.03;;;13.90;99.90;;;;;;4996956;28;20469;-64
2022/05/10 04:31:14;;;;;;;27.03;24.63;;;13.90;99.90;;;;;;5001163;28;20457;-64
2022/05/10 04:33:41;;;;;;;27.80;25.37;;;13.80;99.90;;;;;;5001606;28;20564;-64
2022/05/10 04:36:09;;;;;;;26.10;23.60;;;13.70;99.90;;;;;;4997021;28;20473;-64
2022/05/10 04:38:36;;;;;;;23.70;21.80;;;13.70;99.90;;;;;;4996052;28;20485;-64
2022/05/10 04:43:49;;;;;;;25.77;23.17;;;13.80;99.90;;;;;;4995920;28;20413;-64
2022/05/10 04:46:16;;;;;;;25.87;23.67;;;13.80;99.90;;;;;;4995844;28;20474;-64
2022/05/10 04:48:44;;;;;;;25.83;23.50;;;13.70;99.90;;;;;;4995715;28;20482;-64
2022/05/10 04:51:10;;;;;;;25.73;23.53;;;13.70;99.90;;;;;;4995554;28;20449;-64
2022/05/10 04:53:37;;;;;;;25.40;23.20;;;13.80;99.90;;;;;;4995715;28;20481;-64
2022/05/10 04:56:05;;;;;;;25.87;23.43;;;13.80;99.90;;;;;;4995468;28;20527;-64
2022/05/10 04:58:32;;;;;;;25.70;23.40;;;13.90;99.90;;;;;;4995663;28;20461;-63
2022/05/10 05:01:03;;;;;;;25.47;23.33;;;13.90;99.90;;;;;;4995995;28;20461;-63
2022/05/10 05:03:30;;;;;;;26.07;23.53;;;13.90;99.90;;;;;;4996172;28;20930;-65
2022/05/10 05:05:56;;;;;;;25.70;23.50;;;13.90;99.90;;;;;;4994706;28;20478;-65
2022/05/10 05:08:23;;;;;;;25.13;22.93;;;13.90;99.90;;;;;;4995449;28;20450;-66
2022/05/10 05:10:50;;;;;;;24.80;22.40;;;14.00;99.90;;;;;;4995319;28;20829;-65
2022/05/10 05:13:17;;;;;;;24.37;22.27;;;14.10;99.90;;;;;;4995323;28;20481;-65
2022/05/10 05:15:44;;;;;;;25.80;23.50;;;14.20;99.90;;;;;;4995317;28;20482;-65
2022/05/10 05:18:12;;;;;;;24.67;22.77;;;14.30;99.90;;;;;;4995351;28;20459;-66
2022/05/10 05:20:41;;;;;;;24.20;22.17;;;14.50;99.90;;;;;;4995245;28;20458;-65
2022/05/10 05:23:08;;;;;;;26.20;23.40;;;14.60;99.90;;;;;;4994925;28;20951;-65
2022/05/10 05:25:36;;;;;;;23.80;21.70;;;14.70;99.90;;;;;;4995151;28;20458;-65
2022/05/10 05:28:04;;;;;;;22.13;20.40;;;14.90;99.90;;;;;;4994981;28;20493;-65
2022/05/10 05:30:31;;;;;;;21.60;19.80;;;15.20;99.90;;;;;;4995102;28;20457;-65
2022/05/10 05:32:58;;;;;;;19.60;18.00;;;15.50;99.90;;;;;;4995051;28;20504;-65
2022/05/10 05:35:26;;;;;;;20.57;18.50;;;15.80;99.90;;;;;;4994970;28;20457;-65
2022/05/10 05:37:54;;;;;;;20.53;17.70;;;16.20;99.90;;;;;;4995010;28;20453;-65
2022/05/10 05:40:22;;;;;;;19.77;17.73;;;16.50;99.90;;;;;;4995045;28;20458;-65
2022/05/10 05:42:49;;;;;;;20.43;18.30;;;16.80;99.90;;;;;;4995008;28;20450;-65
2022/05/10 05:45:19;;;;;;;19.50;17.63;;;16.90;99.90;;;;;;4994835;28;20467;-65
2022/05/10 05:47:46;;;;;;;19.37;17.80;;;17.00;99.90;;;;;;4994812;28;20474;-65
2022/05/10 05:50:16;;;;;;;18.97;17.53;;;17.10;99.90;;;;;;4994835;28;20460;-65
2022/05/10 05:52:44;;;;;;;19.20;17.60;;;17.20;99.90;;;;;;4995058;28;20477;-65
2022/05/10 05:55:12;;;;;;;18.20;16.80;;;17.30;99.90;;;;;;4994946;28;20453;-65
2022/05/10 05:57:39;;;;;;;19.77;17.63;;;17.40;99.90;;;;;;4994290;28;20500;-65
2022/05/10 06:00:08;;;;;;;19.20;17.57;;;17.50;99.90;;;;;;4994736;28;20453;-65
2022/05/10 06:02:35;;;;;;;19.53;18.03;;;17.60;99.90;;;;;;4994832;28;20512;-65
2022/05/10 06:05:02;;;;;;;19.00;17.40;;;17.70;99.90;;;;;;4994639;28;20939;-65
2022/05/10 06:07:29;;;;;;;17.43;16.03;;;17.70;99.90;;;;;;4994987;28;20478;-65
2022/05/10 06:09:58;;;;;;;18.50;16.90;;;17.80;99.90;;;;;;4994941;28;20462;-65
2022/05/10 06:12:25;;;;;;;19.17;17.47;;;18.00;99.90;;;;;;4994966;28;20477;-65
2022/05/10 06:14:52;;;;;;;20.13;18.50;;;18.00;99.90;;;;;;4994601;28;20951;-65
2022/05/10 06:17:19;;;;;;;17.93;16.40;;;18.20;99.90;;;;;;4995072;28;20507;-64
2022/05/10 06:19:46;;;;;;;17.50;15.77;;;18.50;99.90;;;;;;4994781;28;20858;-64
2022/05/10 06:22:14;;;;;;;17.97;16.33;;;18.80;99.90;;;;;;4994805;28;20450;-65
2022/05/10 06:24:41;;;;;;;17.90;16.00;;;19.20;99.90;;;;;;4995189;28;20458;-65
2022/05/10 06:27:14;;;;;;;18.50;17.00;;;19.50;99.90;;;;;;4996590;28;20477;-65
2022/05/10 06:29:40;;;;;;;16.90;15.40;;;19.70;99.90;;;;;;4995936;28;20449;-65
2022/05/10 06:32:08;;;;;;;17.00;15.60;;;19.90;99.90;;;;;;4995637;28;20460;-65
2022/05/10 06:34:35;;;;;;;17.73;16.23;;;20.00;99.90;;;;;;4994916;28;20460;-64
2022/05/10 06:37:01;;;;;;;19.70;15.23;;;20.20;99.90;;;;;;4994504;28;20477;-64
2022/05/10 06:39:28;;;;;;;15.70;14.40;;;20.50;99.90;;;;;;4994597;28;20457;-65
2022/05/10 06:41:55;;;;;;;17.10;15.70;;;20.70;99.90;;;;;;4994389;28;20504;-64
2022/05/10 06:44:25;;;;;;;15.73;14.33;;;21.20;99.90;;;;;;4994145;28;20993;-65
2022/05/10 06:46:51;;;;;;;17.87;14.47;;;21.60;99.90;;;;;;4994424;28;20525;-65
2022/05/10 06:49:18;;;;;;;15.50;14.10;;;21.90;99.90;;;;;;4995052;28;20796;-65
2022/05/10 06:51:45;;;;;;;15.23;13.97;;;22.30;99.90;;;;;;4994490;28;20492;-65
2022/05/10 06:54:12;;;;;;;16.67;15.27;;;22.60;99.90;;;;;;4994084;28;20484;-65
2022/05/10 06:56:38;;;;;;;16.77;15.27;;;22.50;99.90;;;;;;4994073;28;20489;-66
2022/05/10 06:59:05;;;;;;;15.87;14.43;;;22.60;99.90;;;;;;4994494;28;20457;-65
2022/05/10 07:01:34;;;;;;;16.70;15.30;;;22.80;99.90;;;;;;4993985;28;20445;-64
2022/05/10 07:04:02;;;;;;;14.97;13.70;;;22.90;99.90;;;;;;4994042;28;20449;-64
2022/05/10 07:06:29;;;;;;;15.03;13.60;;;22.90;99.90;;;;;;4993912;28;20480;-64
2022/05/10 07:08:56;;;;;;;15.63;14.40;;;23.00;99.90;;;;;;4994247;28;20489;-64
2022/05/10 07:11:22;;;;;;;16.53;14.97;;;23.20;99.90;;;;;;4993764;28;20947;-64
2022/05/10 07:13:49;;;;;;;15.80;14.70;;;23.30;99.90;;;;;;4993820;28;20488;-64
2022/05/10 07:16:16;;;;;;;16.13;14.63;;;23.40;99.90;;;;;;4993957;28;20474;-65
2022/05/10 07:18:44;;;;;;;16.20;14.80;;;23.50;99.90;;;;;;4994157;28;20465;-65
2022/05/10 07:21:11;;;;;;;15.40;14.07;;;23.80;99.90;;;;;;4994220;28;20466;-64
2022/05/10 07:23:38;;;;;;;16.60;15.20;;;24.10;99.90;;;;;;4993900;28;20482;-64
2022/05/10 07:26:05;;;;;;;15.67;14.57;;;24.40;99.90;;;;;;4994171;28;20478;-63
2022/05/10 07:28:32;;;;;;;14.60;13.40;;;24.60;99.90;;;;;;4995320;28;20523;-64
2022/05/10 07:31:00;;;;;;;15.53;14.07;;;24.90;99.90;;;;;;4997823;28;20457;-64
2022/05/10 07:33:27;;;;;;;14.63;13.17;;;25.20;99.90;;;;;;4997732;28;20474;-64
2022/05/10 07:38:41;;;;;;;14.27;13.27;;;25.50;99.90;;;;;;4997541;28;20809;-64
2022/05/10 07:41:08;;;;;;;13.23;12.23;;;25.90;99.50;;;;;;4997115;28;20957;-64
2022/05/10 07:43:37;;;;;;;13.43;12.43;;;26.20;98.20;;;;;;4997465;28;20446;-64
2022/05/10 07:46:05;;;;;;;13.00;11.87;;;26.60;97.50;;;;;;5002637;28;20481;-65
2022/05/10 07:48:32;;;;;;;12.97;11.80;;;27.00;98.20;;;;;;5005410;28;20453;-66
2022/05/10 07:51:02;;;;;;;14.33;13.00;;;27.40;94.10;;;;;;5005971;28;20857;-64
2022/05/10 07:53:31;;;;;;;12.50;11.23;;;27.60;92.60;;;;;;5005906;28;20497;-64
2022/05/10 07:55:58;;;;;;;11.20;10.40;;;27.80;92.60;;;;;;5001524;28;20890;-64
2022/05/10 07:58:25;;;;;;;11.90;10.80;;;28.10;92.30;;;;;;4997250;28;20835;-64
2022/05/10 08:00:52;;;;;;;12.70;11.70;;;28.40;90.70;;;;;;4996948;28;20454;-64
2022/05/10 08:03:24;;;;;;;12.37;11.37;;;28.70;89.70;;;;;;4996788;28;20461;-64
2022/05/10 08:05:52;;;;;;;12.40;11.40;;;29.00;88.00;;;;;;4996887;28;20477;-64
2022/05/10 08:08:20;;;;;;;10.90;10.00;;;29.20;86.20;;;;;;4996963;28;20453;-64
2022/05/10 08:10:48;;;;;;;11.57;10.53;;;29.50;87.90;;;;;;4996625;28;20544;-64
2022/05/10 08:13:18;;;;;;;10.20;9.40;;;29.60;84.20;;;;;;4996513;28;20484;-64
2022/05/10 08:15:45;;;;;;;11.87;10.77;;;29.70;83.10;;;;;;4996638;28;20556;-64
2022/05/10 08:18:12;;;;;;;11.30;10.40;;;29.80;80.10;;;;;;4996320;28;20545;-65
2022/05/10 08:20:40;;;;;;;9.57;8.83;;;30.00;82.50;;;;;;4996499;28;20460;-65
2022/05/10 08:23:07;;;;;;;9.60;9.00;;;30.40;79.00;;;;;;4996308;28;20461;-65
2022/05/10 08:25:35;;;;;;;10.67;9.97;;;30.50;80.60;;;;;;4998339;28;20489;-64
2022/05/10 08:28:02;;;;;;;9.37;8.67;;;31.10;78.40;;;;;;4997887;28;20454;-64
2022/05/10 08:30:29;;;;;;;8.67;8.07;;;31.60;80.50;;;;;;4997244;28;20453;-64
2022/05/10 08:32:56;;;;;;;9.80;8.17;;;31.80;71.30;;;;;;4995810;28;21048;-65
2022/05/10 08:35:23;;;;;;;10.73;9.77;;;32.10;70.30;;;;;;4996428;28;20830;-65
2022/05/10 08:37:50;;;;;;;8.50;7.70;;;32.50;72.80;;;;;;4996265;28;20457;-65
2022/05/10 08:40:24;;;;;;;9.40;8.80;;;32.80;69.80;;;;;;4996044;28;20453;-65
2022/05/10 08:42:55;;;;;;;8.70;8.00;;;33.30;65.20;;;;;;4996176;28;20445;-65
2022/05/10 08:45:25;;;;;;;7.80;7.30;;;33.00;61.20;;;;;;4996244;28;20441;-65
2022/05/10 08:47:53;;;;;;;9.20;8.60;;;32.70;62.50;;;;;;4996158;28;20808;-65
2022/05/10 08:50:19;;;;;;;7.27;6.77;;;32.70;62.00;;;;;;4996234;28;20490;-65
2022/05/10 08:52:51;;;;;;;8.90;8.20;;;33.00;66.60;;;;;;4995862;28;20457;-65
2022/05/10 08:55:22;;;;;;;7.50;6.90;;;33.10;63.50;;;;;;4996747;28;20437;-69
2022/05/10 08:57:51;;;;;;;8.67;8.07;;;33.50;60.00;;;;;;4995381;28;20469;-65
2022/05/10 09:00:29;;;;;;;9.07;8.37;;;33.00;57.90;;;;;;4995848;28;20461;-65
2022/05/10 09:02:57;;;;;;;8.63;8.03;;;32.30;61.60;;;;;;4995695;28;20441;-65
2022/05/10 09:05:31;;;;;;;9.47;8.63;;;31.80;62.50;;;;;;4995614;28;20457;-64
2022/05/10 09:08:05;;;;;;;8.70;8.00;;;31.80;67.00;;;;;;4995765;28;20438;-65
2022/05/10 09:10:44;;;;;;;7.37;6.80;;;32.40;65.30;;;;;;4995619;28;20848;-65
2022/05/10 09:13:15;;;;;;;8.33;7.63;;;32.80;61.50;;;;;;4995470;28;20468;-65
2022/05/10 09:15:48;;;;;;;8.47;7.77;;;32.90;59.70;;;;;;4995435;28;20448;-64
2022/05/10 09:18:20;;;;;;;8.10;7.50;;;33.20;59.40;;;;;;4995448;28;20437;-64
2022/05/10 09:20:56;;;;;;;8.63;8.03;;;33.70;59.70;;;;;;4995066;28;20438;-65
2022/05/10 09:23:32;;;;;;;8.23;7.60;;;34.10;59.00;;;;;;4995423;28;20445;-65
2022/05/10 09:26:00;;;;;;;7.80;7.20;;;34.30;58.10;;;;;;4995194;28;20547;-65
2022/05/10 09:28:33;;;;;;;7.10;6.50;;;34.60;57.70;;;;;;4995146;28;20484;-65
2022/05/10 09:34:46;;;;;;;7.33;6.83;;;35.60;54.70;;;;;;4954156;29;20474;-65
2022/05/10 09:37:17;;;;;;;7.30;6.80;;;35.60;54.40;;;;;;4990150;28;20480;-65
2022/05/10 09:39:49;;;;;;;7.07;6.47;;;35.80;55.30;;;;;;4994761;28;20441;-65
2022/05/10 09:42:27;;;;;;;7.47;6.87;;;35.60;53.80;;;;;;4994991;28;20847;-65
2022/05/10 09:45:03;;;;;;;5.67;5.37;;;35.60;54.10;;;;;;4995324;28;20993;-65
2022/05/10 09:47:32;;;;;;;5.70;5.30;;;35.60;49.00;;;;;;4994724;28;20504;-65
2022/05/10 09:50:16;;;;;;;5.00;4.70;;;35.30;49.10;;;;;;4994703;28;20453;-67
2022/05/10 09:52:43;;;;;;;6.63;6.13;;;35.30;48.10;;;;;;4995077;28;20437;-67
2022/05/10 09:55:16;;;;;;;6.87;6.23;;;35.60;48.50;;;;;;4995139;28;20639;-67
2022/05/10 09:57:43;;;;;;;12.10;7.73;;;35.60;48.60;;;;;;4994523;28;20547;-67
2022/05/10 10:00:15;;;;;;;5.90;5.60;;;36.10;48.90;;;;;;4994416;28;21033;-65
2022/05/10 10:02:44;;;;;;;5.53;5.13;;;36.30;48.30;;;;;;4994364;28;20445;-65
2022/05/10 10:05:23;;;;;;;6.40;6.00;;;36.10;48.40;;;;;;4994396;28;20859;-65
2022/05/10 10:07:53;;;;;;;6.70;6.20;;;36.40;48.30;;;;;;4994183;28;20855;-65
2022/05/10 10:10:24;;;;;;;5.80;5.30;;;36.50;49.10;;;;;;4994148;28;20935;-65
2022/05/10 10:12:51;;;;;;;6.53;5.97;;;36.60;48.50;;;;;;4994970;28;20783;-65
2022/05/10 10:15:24;;;;;;;7.10;6.40;;;36.70;47.50;;;;;;4994430;28;20481;-65
2022/05/10 10:17:54;;;;;;;6.70;6.30;;;36.70;49.10;;;;;;4994532;28;20448;-65
2022/05/10 10:20:31;;;;;;;6.70;6.07;;;36.90;50.10;;;;;;4993985;28;20914;-65
2022/05/10 10:23:03;;;;;;;6.70;6.07;;;36.60;47.10;;;;;;4994357;28;20437;-65
2022/05/10 10:25:34;;;;;;;5.90;5.50;;;35.90;47.40;;;;;;4994439;28;20444;-65
2022/05/10 10:28:09;;;;;;;7.00;5.80;;;35.50;49.00;;;;;;4994381;28;20442;-65
2022/05/10 10:30:42;;;;;;;5.93;5.13;;;35.30;50.50;;;;;;4994517;28;20441;-65
2022/05/10 10:33:17;;;;;;;5.97;5.57;;;35.50;49.70;;;;;;4994356;28;20437;-65
2022/05/10 10:35:48;;;;;;;8.03;5.90;;;35.70;47.20;;;;;;4994120;28;20441;-65
2022/05/10 10:38:20;;;;;;;6.40;5.80;;;36.00;48.10;;;;;;4994350;28;20441;-65
2022/05/10 10:40:56;;;;;;;5.97;5.67;;;36.10;50.30;;;;;;4994338;28;20468;-65
2022/05/10 10:43:30;;;;;;;5.90;5.30;;;35.60;48.90;;;;;;4994109;28;20944;-65
2022/05/10 10:46:07;;;;;;;6.23;5.73;;;35.10;47.10;;;;;;4994065;28;20480;-65
2022/05/10 10:48:44;;;;;;;6.63;6.23;;;34.70;46.20;;;;;;4993893;28;20437;-65
2022/05/10 10:51:11;;;;;;;6.90;6.20;;;34.20;46.40;;;;;;4994560;28;20445;-65
2022/05/10 10:53:40;;;;;;;6.53;6.00;;;33.90;48.80;;;;;;4994469;28;20481;-65
2022/05/10 10:56:29;;;;;;;6.30;5.80;;;33.70;53.10;;;;;;4993640;28;20998;-65
2022/05/10 10:59:10;;;;;;;5.97;5.57;;;33.80;49.00;;;;;;4993916;28;20449;-65
2022/05/10 11:01:48;;;;;;;6.03;5.53;;;34.00;50.00;;;;;;4994068;28;20459;-65
2022/05/10 11:04:30;;;;;;;5.97;5.53;;;34.10;47.70;;;;;;4996353;28;20437;-65
2022/05/10 11:06:57;;;;;;;5.57;5.17;;;33.70;49.00;;;;;;4998202;28;20962;-65
2022/05/10 11:09:41;;;;;;;6.90;6.40;;;32.90;52.20;;;;;;4997525;28;20460;-65
2022/05/10 11:12:22;;;;;;;6.50;5.90;;;31.80;51.70;;;;;;4998355;28;20448;-65
2022/05/10 11:15:02;;;;;;;6.73;6.33;;;31.40;53.00;;;;;;4997500;28;20473;-65
2022/05/10 11:17:38;;;;;;;6.10;5.70;;;30.70;52.70;;;;;;4997467;28;20477;-64
2022/05/10 11:20:28;;;;;;;6.93;6.17;;;29.80;54.20;;;;;;4997305;28;21018;-65
2022/05/10 11:23:03;;;;;;;6.93;6.53;;;29.80;57.10;;;;;;4997042;28;20437;-65
2022/05/10 11:26:01;;;;;;;6.57;6.17;;;30.30;57.00;;;;;;4997362;28;20476;-65
2022/05/10 11:28:41;;;;;;;6.63;6.03;;;30.90;55.50;;;;;;4992493;28;20458;-65
2022/05/10 11:31:15;;;;;;;5.67;5.33;;;31.40;53.50;;;;;;4997369;28;20442;-65
2022/05/10 11:33:52;;;;;;;6.20;5.73;;;31.80;51.10;;;;;;4997191;28;20449;-65
2022/05/10 11:36:32;;;;;;;6.87;5.90;;;31.90;50.40;;;;;;4996798;28;20473;-65
2022/05/10 11:39:23;;;;;;;5.80;5.47;;;31.70;50.30;;;;;;4997243;28;20456;-65
2022/05/10 11:41:58;;;;;;;6.27;5.77;;;31.60;52.00;;;;;;4997303;28;20438;-65
2022/05/10 11:44:45;;;;;;;6.60;6.20;;;31.70;51.90;;;;;;4996935;28;20493;-65
2022/05/10 11:47:43;;;;;;;5.90;5.50;;;31.50;50.40;;;;;;4996841;28;20477;-65
2022/05/10 11:50:40;;;;;;;5.83;5.40;;;30.70;50.50;;;;;;4996869;28;20465;-65
2022/05/10 11:53:36;;;;;;;5.73;5.43;;;30.00;50.90;;;;;;4997011;28;20438;-65
2022/05/10 11:56:03;;;;;;;6.13;5.73;;;29.40;52.60;;;;;;4993740;28;20488;-64
2022/05/10 11:58:32;;;;;;;6.50;5.70;;;29.40;55.30;;;;;;4996431;28;20943;-65
2022/05/10 12:01:04;;;;;;;5.43;5.03;;;29.50;55.20;;;;;;4996819;28;20485;-65
2022/05/10 12:03:54;;;;;;;5.20;4.90;;;29.70;53.90;;;;;;4996472;28;20448;-65
2022/05/10 12:06:46;;;;;;;6.03;5.63;;;30.00;54.40;;;;;;4996307;28;20904;-65
2022/05/10 12:09:17;;;;;;;5.77;5.47;;;30.20;53.00;;;;;;4996652;28;20465;-65
2022/05/10 12:11:44;;;;;;;6.13;5.77;;;30.30;53.90;;;;;;4996582;28;20433;-65
2022/05/10 12:23:17;;;;;;;6.20;5.77;;;30.50;53.90;;;;;;4996495;28;20464;-65
2022/05/10 12:25:59;;;;;;;5.97;5.60;;;30.50;53.50;;;;;;4996093;28;20453;-64
2022/05/10 12:28:44;;;;;;;6.13;5.63;;;30.50;53.90;;;;;;4996159;28;20437;-65
2022/05/10 12:31:46;;;;;;;5.37;5.07;;;30.50;54.30;;;;;;4996389;28;20448;-65
2022/05/10 12:34:32;;;;;;;6.47;5.87;;;30.40;51.20;;;;;;4998931;28;20477;-65
2022/05/10 12:37:49;;;;;;;6.17;5.67;;;30.40;54.70;;;;;;5001636;28;20564;-65
2022/05/10 12:40:31;;;;;;;6.40;6.00;;;30.30;54.60;;;;;;4995992;28;20464;-65
2022/05/10 12:43:19;;;;;;;6.60;6.07;;;30.30;54.80;;;;;;4996093;28;20442;-65
2022/05/10 12:45:56;;;;;;;5.70;5.20;;;29.90;53.80;;;;;;4995725;28;20834;-65
2022/05/10 12:48:39;;;;;;;6.30;5.90;;;29.80;55.80;;;;;;4995665;28;20805;-65
2022/05/10 12:51:20;;;;;;;6.37;5.50;;;30.20;57.50;;;;;;4995904;28;20449;-65
2022/05/10 12:53:57;;;;;;;5.77;5.27;;;30.40;56.90;;;;;;4995938;28;20469;-65
2022/05/10 12:56:26;;;;;;;6.50;6.10;;;30.70;56.30;;;;;;4995536;28;20477;-65
2022/05/10 12:58:55;;;;;;;5.70;5.20;;;30.70;51.90;;;;;;4995877;28;20453;-65
2022/05/10 13:01:24;;;;;;;6.03;5.67;;;30.90;52.00;;;;;;4995804;28;20461;-65
2022/05/10 13:03:56;;;;;;;5.03;4.63;;;30.80;49.60;;;;;;4996132;28;20453;-65
2022/05/10 13:06:33;;;;;;;6.07;5.57;;;30.70;51.90;;;;;;4996529;28;20473;-65
2022/05/10 13:09:18;;;;;;;6.00;5.50;;;30.20;51.90;;;;;;4995611;28;20548;-65
2022/05/10 13:11:50;;;;;;;5.40;5.10;;;29.90;51.50;;;;;;4995497;28;20446;-65
2022/05/10 13:14:18;;;;;;;6.13;5.70;;;29.70;52.50;;;;;;4995343;28;20489;-65
2022/05/10 13:16:48;;;;;;;5.40;5.10;;;29.70;52.20;;;;;;4995417;28;20535;-65
2022/05/10 13:19:15;;;;;;;5.50;5.03;;;29.70;52.70;;;;;;4995188;28;21014;-65
2022/05/10 13:21:43;;;;;;;5.33;5.00;;;29.60;51.50;;;;;;4995350;28;20458;-65
2022/05/10 13:24:14;;;;;;;5.67;5.13;;;29.70;51.80;;;;;;4995240;28;20457;-65
2022/05/10 13:26:51;;;;;;;5.50;5.00;;;29.60;53.60;;;;;;4994395;28;20473;-66
2022/05/10 13:29:18;;;;;;;5.80;5.50;;;29.50;52.40;;;;;;4995192;28;20453;-66
2022/05/10 13:31:45;;;;;;;5.90;5.40;;;29.70;53.10;;;;;;4995435;28;20449;-66
2022/05/10 13:34:16;;;;;;;6.17;5.77;;;29.70;52.40;;;;;;4995021;28;20438;-66
2022/05/10 13:36:47;;;;;;;5.50;5.20;;;29.70;51.90;;;;;;4994977;28;20536;-65
2022/05/10 13:39:22;;;;;;;6.00;5.60;;;29.50;51.80;;;;;;4994993;28;20974;-65
2022/05/10 13:41:48;;;;;;;6.20;5.80;;;29.30;52.00;;;;;;4995014;28;20445;-67
2022/05/10 13:44:19;;;;;;;6.10;5.70;;;29.30;52.10;;;;;;4994498;28;20947;-66
2022/05/10 13:46:48;;;;;;;6.57;5.43;;;29.30;52.70;;;;;;4994815;28;20561;-66
2022/05/10 13:49:19;;;;;;;6.00;5.50;;;29.20;54.10;;;;;;4994886;28;20489;-66
2022/05/10 13:51:50;;;;;;;5.53;5.20;;;29.30;56.00;;;;;;4994976;28;20442;-66
2022/05/10 13:54:29;;;;;;;5.60;5.20;;;29.40;52.40;;;;;;4994629;28;20919;-66
2022/05/10 13:57:10;;;;;;;6.50;6.00;;;29.40;52.10;;;;;;4994394;28;20604;-66
2022/05/10 13:59:37;;;;;;;5.60;5.20;;;29.60;54.60;;;;;;4994831;28;20476;-65
2022/05/10 14:02:06;;;;;;;5.43;5.03;;;29.70;54.30;;;;;;4994635;28;20458;-65
2022/05/10 14:04:32;;;;;;;5.50;5.00;;;29.80;53.80;;;;;;4997027;28;20545;-65
2022/05/10 14:07:07;;;;;;;5.50;5.10;;;29.80;58.50;;;;;;4999213;28;20466;-65
2022/05/10 14:09:40;;;;;;;5.90;5.40;;;29.80;54.60;;;;;;4994709;28;20504;-65
2022/05/10 14:12:12;;;;;;;5.70;5.40;;;29.90;52.60;;;;;;4994588;28;20442;-65
2022/05/10 14:14:39;;;;;;;5.20;4.80;;;30.10;55.90;;;;;;4994373;28;20473;-65
2022/05/10 14:17:06;;;;;;;5.53;5.10;;;30.30;55.30;;;;;;4994404;28;20516;-65
2022/05/10 14:19:37;;;;;;;4.90;4.70;;;30.40;56.50;;;;;;4994529;28;20461;-65
2022/05/10 14:22:07;;;;;;;5.37;5.17;;;30.50;55.90;;;;;;4994563;28;20870;-65
2022/05/10 14:24:38;;;;;;;5.67;5.27;;;30.60;56.70;;;;;;4994231;28;20446;-65
2022/05/10 14:27:10;;;;;;;5.67;5.20;;;30.50;52.30;;;;;;4994342;28;20477;-65
2022/05/10 14:29:42;;;;;;;5.20;4.80;;;30.50;54.20;;;;;;4994073;28;20848;-65
2022/05/10 14:32:11;;;;;;;5.60;5.30;;;30.50;55.20;;;;;;4994342;28;20445;-65
2022/05/10 14:34:53;;;;;;;7.43;5.43;;;30.40;54.20;;;;;;4994051;28;20882;-65
2022/05/10 14:37:26;;;;;;;5.13;4.73;;;30.20;54.60;;;;;;4996177;28;20516;-65
2022/05/10 14:39:55;;;;;;;5.73;5.10;;;30.10;52.50;;;;;;4998524;28;20446;-64
2022/05/10 14:42:27;;;;;;;6.23;5.70;;;29.80;52.00;;;;;;4998003;28;20469;-65
2022/05/10 14:45:10;;;;;;;5.70;5.30;;;29.50;53.00;;;;;;4998337;28;20434;-65
2022/05/10 14:47:37;;;;;;;5.80;5.40;;;29.30;56.40;;;;;;4997938;28;20484;-64
2022/05/10 14:50:06;;;;;;;5.43;5.03;;;29.20;57.80;;;;;;4998188;28;20461;-65
2022/05/10 14:52:37;;;;;;;5.93;5.53;;;29.10;54.30;;;;;;4997732;28;20453;-65
2022/05/10 14:55:07;;;;;;;5.63;5.23;;;29.00;54.20;;;;;;4998887;28;20461;-65
2022/05/10 14:57:38;;;;;;;5.83;5.43;;;28.80;55.40;;;;;;4997680;28;20837;-65
2022/05/10 15:00:28;;;;;;;7.23;5.00;;;28.80;57.10;;;;;;4998035;28;20457;-65
2022/05/10 15:03:08;;;;;;;6.53;6.00;;;28.80;55.70;;;;;;4997494;28;20800;-65
2022/05/10 15:05:39;;;;;;;7.20;5.87;;;28.90;55.40;;;;;;4997871;28;20796;-64
2022/05/10 15:08:06;;;;;;;6.90;6.40;;;28.80;55.60;;;;;;4997717;28;20442;-65
2022/05/10 15:10:35;;;;;;;6.73;5.50;;;28.80;56.30;;;;;;4997748;28;20453;-65
2022/05/10 15:13:05;;;;;;;5.60;5.30;;;28.90;58.20;;;;;;4997923;28;20458;-65
2022/05/10 15:15:33;;;;;;;6.43;6.03;;;28.90;57.90;;;;;;4997070;28;20966;-65
2022/05/10 15:20:44;;;;;;;6.63;5.80;;;28.90;56.90;;;;;;4997738;28;20433;-65